createdAt,value
2024-02-13T00:00:47.191Z,1003.30
2024-02-13T00:01:47.219Z,1003.33
2024-02-13T00:02:47.226Z,1003.32
2024-02-13T00:03:47.177Z,1003.33
2024-02-13T00:04:47.113Z,1003.35
2024-02-13T00:05:47.141Z,1003.35
2024-02-13T00:06:47.098Z,1003.37
2024-02-13T00:07:47.154Z,1003.38
2024-02-13T00:08:47.266Z,1003.41
2024-02-13T00:09:47.088Z,1003.43
2024-02-13T00:10:47.061Z,1003.45
2024-02-13T00:11:47.108Z,1003.47
2024-02-13T00:12:47.044Z,1003.49
2024-02-13T00:13:47.288Z,1003.52
2024-02-13T00:14:47.470Z,1003.52
2024-02-13T00:15:47.004Z,1003.55
2024-02-13T00:16:47.000Z,1003.56
2024-02-13T00:17:47.074Z,1003.58
2024-02-13T00:18:47.608Z,1003.59
2024-02-13T00:19:47.010Z,1003.61
2024-02-13T00:20:46.962Z,1003.64
2024-02-13T00:21:46.943Z,1003.67
2024-02-13T00:22:46.951Z,1003.69
2024-02-13T00:23:47.020Z,1003.71
2024-02-13T00:24:46.923Z,1003.72
2024-02-13T00:25:46.895Z,1003.75
2024-02-13T00:26:46.902Z,1003.76
2024-02-13T00:27:46.880Z,1003.78
2024-02-13T00:28:46.918Z,1003.78
2024-02-13T00:29:47.035Z,1003.78
2024-02-13T00:30:46.884Z,1003.79
2024-02-13T00:31:46.856Z,1003.80
2024-02-13T00:32:46.865Z,1003.81
2024-02-13T00:33:46.932Z,1003.81
2024-02-13T00:34:46.824Z,1003.82
2024-02-13T00:35:46.834Z,1003.84
2024-02-13T00:36:46.799Z,1003.87
2024-02-13T00:37:46.774Z,1003.89
2024-02-13T00:38:46.761Z,1003.90
2024-02-13T00:39:46.755Z,1003.93
2024-02-13T00:40:46.738Z,1003.93
2024-02-13T00:41:46.834Z,1003.94
2024-02-13T00:42:46.750Z,1003.95
2024-02-13T00:43:46.720Z,1003.96
2024-02-13T00:44:46.765Z,1003.97
2024-02-13T00:45:46.694Z,1003.98
2024-02-13T00:46:46.676Z,1003.99
2024-02-13T00:47:46.771Z,1004.01
2024-02-13T00:48:46.750Z,1004.02
2024-02-13T00:49:46.758Z,1004.02
2024-02-13T00:50:46.648Z,1004.03
2024-02-13T00:51:46.625Z,1004.03
2024-02-13T00:52:46.599Z,1004.04
2024-02-13T00:53:46.675Z,1004.05
2024-02-13T00:54:46.603Z,1004.07
2024-02-13T00:55:46.585Z,1004.08
2024-02-13T00:56:46.604Z,1004.09
2024-02-13T00:57:46.559Z,1004.09
2024-02-13T00:58:46.585Z,1004.09
2024-02-13T00:59:46.604Z,1004.10
2024-02-13T01:00:46.552Z,1004.10
2024-02-13T01:01:46.515Z,1004.10
2024-02-13T01:02:46.800Z,1004.10
2024-02-13T01:03:46.552Z,1004.12
2024-02-13T01:04:46.481Z,1004.13
2024-02-13T01:05:46.583Z,1004.14
2024-02-13T01:06:46.502Z,1004.15
2024-02-13T01:07:46.457Z,1004.15
2024-02-13T01:08:46.535Z,1004.16
2024-02-13T01:09:46.457Z,1004.16
2024-02-13T01:10:46.413Z,1004.16
2024-02-13T01:11:46.537Z,1004.18
2024-02-13T01:12:46.399Z,1004.20
2024-02-13T01:13:46.400Z,1004.22
2024-02-13T01:14:46.476Z,1004.24
2024-02-13T01:15:46.376Z,1004.26
2024-02-13T01:16:46.375Z,1004.28
2024-02-13T01:17:46.433Z,1004.31
2024-02-13T01:18:46.419Z,1004.33
2024-02-13T01:19:46.376Z,1004.35
2024-02-13T01:20:46.373Z,1004.36
2024-02-13T01:21:46.328Z,1004.37
2024-02-13T01:22:46.289Z,1004.38
2024-02-13T01:23:46.482Z,1004.39
2024-02-13T01:24:46.265Z,1004.41
2024-02-13T01:25:46.264Z,1004.43
2024-02-13T01:26:46.544Z,1004.45
2024-02-13T01:27:46.247Z,1004.47
2024-02-13T01:28:46.231Z,1004.49
2024-02-13T01:29:46.336Z,1004.50
2024-02-13T01:30:46.199Z,1004.50
2024-02-13T01:31:46.219Z,1004.51
2024-02-13T01:32:46.263Z,1004.52
2024-02-13T01:33:46.486Z,1004.53
2024-02-13T01:34:46.230Z,1004.53
2024-02-13T01:35:46.313Z,1004.55
2024-02-13T01:36:46.155Z,1004.54
2024-02-13T01:37:46.853Z,1004.55
2024-02-13T01:38:46.159Z,1004.56
2024-02-13T01:39:46.125Z,1004.57
2024-02-13T01:40:46.095Z,1004.57
2024-02-13T01:41:46.162Z,1004.58
2024-02-13T01:42:46.071Z,1004.59
2024-02-13T01:43:46.083Z,1004.60
2024-02-13T01:44:46.166Z,1004.62
2024-02-13T01:45:46.069Z,1004.63
2024-02-13T01:46:46.062Z,1004.63
2024-02-13T01:47:46.262Z,1004.65
2024-02-13T01:48:46.085Z,1004.66
2024-02-13T01:49:46.014Z,1004.67
2024-02-13T01:50:46.042Z,1004.67
2024-02-13T01:51:46.033Z,1004.68
2024-02-13T01:52:45.980Z,1004.68
2024-02-13T01:53:46.013Z,1004.69
2024-02-13T01:54:45.938Z,1004.70
2024-02-13T01:55:45.960Z,1004.70
2024-02-13T01:56:45.948Z,1004.68
2024-02-13T01:57:45.924Z,1004.68
2024-02-13T01:58:45.941Z,1004.67
2024-02-13T01:59:45.969Z,1004.68
2024-02-13T02:00:45.928Z,1004.69
2024-02-13T02:01:45.934Z,1004.71
2024-02-13T02:02:45.943Z,1004.72
2024-02-13T02:03:45.903Z,1004.73
2024-02-13T02:04:45.865Z,1004.75
2024-02-13T02:05:45.945Z,1004.75
2024-02-13T02:06:45.864Z,1004.77
2024-02-13T02:07:45.830Z,1004.79
2024-02-13T02:08:45.830Z,1004.80
2024-02-13T02:09:45.829Z,1004.82
2024-02-13T02:10:45.897Z,1004.84
2024-02-13T02:11:45.820Z,1004.84
2024-02-13T02:12:45.752Z,1004.86
2024-02-13T02:13:45.757Z,1004.87
2024-02-13T02:14:45.772Z,1004.88
2024-02-13T02:15:45.731Z,1004.89
2024-02-13T02:16:45.758Z,1004.88
2024-02-13T02:17:45.776Z,1004.88
2024-02-13T02:18:45.813Z,1004.88
2024-02-13T02:19:45.685Z,1004.88
2024-02-13T02:20:45.691Z,1004.87
2024-02-13T02:21:45.669Z,1004.89
2024-02-13T02:22:45.658Z,1004.89
2024-02-13T02:23:45.695Z,1004.90
2024-02-13T02:24:45.629Z,1004.91
2024-02-13T02:25:45.629Z,1004.93
2024-02-13T02:26:45.633Z,1004.95
2024-02-13T02:27:45.618Z,1004.97
2024-02-13T02:28:45.607Z,1005.00
2024-02-13T02:29:45.604Z,1005.00
2024-02-13T07:00:55.210Z,1007.18
2024-02-13T07:01:56.085Z,1007.18
2024-02-13T07:02:56.496Z,1007.17
2024-02-13T07:03:56.099Z,1007.17
2024-02-13T07:04:56.022Z,1007.17
2024-02-13T07:05:57.273Z,1007.17
2024-02-13T07:07:03.901Z,1007.18
2024-02-13T07:07:56.111Z,1007.19
2024-02-13T07:08:56.120Z,1007.20
2024-02-13T07:09:56.160Z,1007.22
2024-02-13T07:10:55.965Z,1007.23
2024-02-13T07:11:56.099Z,1007.24
2024-02-13T07:12:55.956Z,1007.23
2024-02-13T07:13:55.945Z,1007.25
2024-02-13T07:14:55.975Z,1007.28
2024-02-13T07:15:55.990Z,1007.27
2024-02-13T07:16:55.918Z,1007.26
2024-02-13T07:18:00.528Z,1007.25
2024-02-13T07:18:55.999Z,1007.25
2024-02-13T07:19:55.966Z,1007.24
2024-02-13T07:20:58.184Z,1007.24
2024-02-13T07:21:55.880Z,1007.26
2024-02-13T07:22:55.946Z,1007.26
2024-02-13T07:23:55.919Z,1007.26
2024-02-13T07:24:55.824Z,1007.29
2024-02-13T07:25:55.835Z,1007.27
2024-02-13T07:26:55.816Z,1007.28
2024-02-13T07:27:55.881Z,1007.28
2024-02-13T07:28:55.796Z,1007.29
2024-02-13T07:29:55.852Z,1007.32
2024-02-13T07:30:55.758Z,1007.33
2024-02-13T07:31:55.795Z,1007.35
2024-02-13T07:32:55.930Z,1007.37
2024-02-13T07:33:55.959Z,1007.40
2024-02-13T07:34:55.756Z,1007.40
2024-02-13T07:35:55.795Z,1007.40
2024-02-13T07:36:55.703Z,1007.41
2024-02-13T07:37:55.693Z,1007.41
2024-02-13T07:38:55.718Z,1007.40
2024-02-13T07:39:55.901Z,1007.40
2024-02-13T07:40:55.668Z,1007.41
2024-02-13T07:41:55.669Z,1007.42
2024-02-13T07:42:55.631Z,1007.44
2024-02-13T07:43:55.623Z,1007.46
2024-02-13T07:44:55.678Z,1007.45
2024-02-13T07:45:55.648Z,1007.44
2024-02-13T07:46:55.609Z,1007.43
2024-02-13T07:47:55.628Z,1007.43
2024-02-13T07:48:55.643Z,1007.42
2024-02-13T07:49:55.661Z,1007.42
2024-02-13T07:50:55.607Z,1007.46
2024-02-13T07:51:55.562Z,1007.49
2024-02-13T07:52:55.520Z,1007.51
2024-02-13T07:53:55.630Z,1007.53
2024-02-13T07:54:55.515Z,1007.54
2024-02-13T07:55:55.569Z,1007.55
2024-02-13T07:56:55.538Z,1007.55
2024-02-13T07:57:55.503Z,1007.56
2024-02-13T07:58:55.461Z,1007.59
2024-02-13T07:59:55.723Z,1007.62
2024-02-13T08:00:55.528Z,1007.63
2024-02-13T08:01:55.484Z,1007.64
2024-02-13T08:02:55.469Z,1007.62
2024-02-13T08:03:55.447Z,1007.61
2024-02-13T08:04:55.419Z,1007.62
2024-02-13T08:05:55.484Z,1007.62
2024-02-13T08:06:55.413Z,1007.62
2024-02-13T08:07:55.404Z,1007.62
2024-02-13T08:08:55.382Z,1007.61
2024-02-13T08:09:55.369Z,1007.61
2024-02-13T08:10:55.333Z,1007.61
2024-02-13T08:11:55.453Z,1007.61
2024-02-13T08:12:55.345Z,1007.62
2024-02-13T08:13:55.373Z,1007.63
2024-02-13T08:14:55.341Z,1007.65
2024-02-13T08:15:55.300Z,1007.66
2024-02-13T08:16:55.271Z,1007.68
2024-02-13T08:17:55.305Z,1007.70
2024-02-13T08:18:55.283Z,1007.69
2024-02-13T08:19:55.343Z,1007.70
2024-02-13T08:20:55.296Z,1007.70
2024-02-13T08:21:55.268Z,1007.71
2024-02-13T08:22:55.210Z,1007.70
2024-02-13T08:23:55.293Z,1007.70
2024-02-13T08:24:55.230Z,1007.69
2024-02-13T08:25:55.217Z,1007.66
2024-02-13T08:26:55.216Z,1007.68
2024-02-13T08:27:55.200Z,1007.66
2024-02-13T08:28:55.142Z,1007.65
2024-02-13T08:29:55.176Z,1007.66
2024-02-13T08:30:55.145Z,1007.66
2024-02-13T08:31:55.169Z,1007.65
2024-02-13T08:32:55.261Z,1007.65
2024-02-13T08:33:55.411Z,1007.64
2024-02-13T08:34:55.246Z,1007.64
2024-02-13T08:35:55.127Z,1007.63
2024-02-13T08:36:55.120Z,1007.64
2024-02-13T08:37:57.352Z,1007.64
2024-02-13T08:38:55.112Z,1007.65
2024-02-13T08:39:55.066Z,1007.66
2024-02-13T08:40:55.044Z,1007.67
2024-02-13T08:41:55.184Z,1007.68
2024-02-13T08:42:55.067Z,1007.73
2024-02-13T08:43:55.016Z,1007.74
2024-02-13T08:44:55.011Z,1007.76
2024-02-13T08:45:54.981Z,1007.79
2024-02-13T08:46:55.003Z,1007.75
2024-02-13T08:47:55.043Z,1007.78
2024-02-13T08:48:55.991Z,1007.76
2024-02-13T08:49:55.112Z,1007.75
2024-02-13T08:50:55.011Z,1007.74
2024-02-13T08:51:54.922Z,1007.76
2024-02-13T08:52:54.939Z,1007.76
2024-02-13T08:53:54.914Z,1007.79
2024-02-13T08:54:54.879Z,1007.78
2024-02-13T08:55:54.883Z,1007.79
2024-02-13T08:56:55.008Z,1007.79
2024-02-13T08:57:54.867Z,1007.79
2024-02-13T08:58:55.073Z,1007.80
2024-02-13T08:59:56.973Z,1007.82
2024-02-13T09:00:54.860Z,1007.83
2024-02-13T09:01:54.819Z,1007.84
2024-02-13T09:02:54.887Z,1007.85
2024-02-13T09:03:54.805Z,1007.85
2024-02-13T09:04:54.867Z,1007.83
2024-02-13T09:05:54.855Z,1007.87
2024-02-13T09:06:54.830Z,1007.87
2024-02-13T09:07:54.756Z,1007.86
2024-02-13T09:08:54.830Z,1007.87
2024-02-13T09:09:54.724Z,1007.86
2024-02-13T09:10:54.704Z,1007.90
2024-02-13T09:11:54.799Z,1007.90
2024-02-13T09:12:54.794Z,1007.90
2024-02-13T09:13:54.687Z,1007.93
2024-02-13T09:14:54.751Z,1007.92
2024-02-13T09:15:54.666Z,1007.93
2024-02-13T09:16:54.674Z,1007.94
2024-02-13T09:17:54.791Z,1007.98
2024-02-13T09:18:54.830Z,1007.95
2024-02-13T09:19:54.668Z,1007.98
2024-02-13T09:20:54.974Z,1007.98
2024-02-13T09:21:54.610Z,1007.97
2024-02-13T09:22:54.575Z,1008.00
2024-02-13T09:23:54.625Z,1007.99
2024-02-13T09:24:56.820Z,1008.00
2024-02-13T09:25:54.566Z,1007.97
2024-02-13T09:26:54.600Z,1007.99
2024-02-13T09:27:54.537Z,1007.98
2024-02-13T09:28:54.518Z,1007.99
2024-02-13T09:29:54.627Z,1007.99
2024-02-13T09:30:54.543Z,1007.95
2024-02-13T09:31:54.532Z,1007.98
2024-02-13T09:32:54.773Z,1007.98
2024-02-13T09:33:54.517Z,1007.98
2024-02-13T09:34:54.478Z,1007.99
2024-02-13T09:35:54.570Z,1007.97
2024-02-13T09:36:54.470Z,1007.98
2024-02-13T09:37:54.437Z,1007.99
2024-02-13T09:38:54.527Z,1007.99
2024-02-13T09:39:54.399Z,1007.99
2024-02-13T09:40:54.378Z,1008.01
2024-02-13T09:41:54.521Z,1008.02
2024-02-13T09:42:54.381Z,1008.01
2024-02-13T09:43:54.365Z,1008.03
2024-02-13T09:44:54.382Z,1008.05
2024-02-13T09:45:54.382Z,1008.05
2024-02-13T09:46:54.331Z,1008.06
2024-02-13T09:47:54.644Z,1008.05
2024-02-13T09:48:54.542Z,1008.06
2024-02-13T09:49:54.330Z,1008.05
2024-02-13T09:50:54.618Z,1008.07
2024-02-13T09:51:54.321Z,1008.09
2024-02-13T09:52:54.252Z,1008.10
2024-02-13T09:53:54.299Z,1008.11
2024-02-13T09:54:54.240Z,1008.13
2024-02-13T09:55:54.270Z,1008.17
2024-02-13T09:56:54.283Z,1008.18
2024-02-13T09:57:54.244Z,1008.19
2024-02-13T09:58:54.262Z,1008.21
2024-02-13T09:59:54.213Z,1008.24
2024-02-13T10:00:56.554Z,1008.25
2024-02-13T10:01:54.186Z,1008.28
2024-02-13T10:02:54.393Z,1008.28
2024-02-13T10:03:54.280Z,1008.30
2024-02-13T10:04:54.169Z,1008.37
2024-02-13T10:05:54.497Z,1008.32
2024-02-13T10:06:54.265Z,1008.35
2024-02-13T10:07:54.161Z,1008.39
2024-02-13T10:08:54.096Z,1008.38
2024-02-13T10:09:54.127Z,1008.37
2024-02-13T10:10:54.071Z,1008.43
2024-02-13T10:11:54.205Z,1008.42
2024-02-13T10:12:54.045Z,1008.48
2024-02-13T10:13:54.260Z,1008.45
2024-02-13T10:14:54.174Z,1008.43
2024-02-13T10:15:54.129Z,1008.42
2024-02-13T10:16:54.003Z,1008.41
2024-02-13T10:17:54.112Z,1008.40
2024-02-13T10:18:54.164Z,1008.38
2024-02-13T10:19:54.058Z,1008.40
2024-02-13T10:20:54.089Z,1008.40
2024-02-13T10:21:54.012Z,1008.40
2024-02-13T10:22:54.062Z,1008.47
2024-02-13T10:23:54.032Z,1008.38
2024-02-13T10:24:53.945Z,1008.37
2024-02-13T10:25:53.911Z,1008.37
2024-02-13T10:26:53.969Z,1008.34
2024-02-13T10:27:53.964Z,1008.37
2024-02-13T10:28:53.902Z,1008.40
2024-02-13T10:29:53.996Z,1008.35
2024-02-13T10:30:54.137Z,1008.37
2024-02-13T10:31:53.878Z,1008.39
2024-02-13T10:32:54.231Z,1008.39
2024-02-13T10:33:53.874Z,1008.36
2024-02-13T10:34:53.866Z,1008.34
2024-02-13T10:35:54.061Z,1008.38
2024-02-13T10:36:53.815Z,1008.43
2024-02-13T10:37:53.979Z,1008.39
2024-02-13T10:38:53.836Z,1008.39
2024-02-13T10:39:53.814Z,1008.38
2024-02-13T10:40:53.820Z,1008.37
2024-02-13T10:41:53.822Z,1008.39
2024-02-13T10:42:53.878Z,1008.37
2024-02-13T10:43:53.745Z,1008.35
2024-02-13T10:44:53.800Z,1008.35
2024-02-13T10:45:53.718Z,1008.39
2024-02-13T10:46:53.701Z,1008.42
2024-02-13T10:47:53.785Z,1008.39
2024-02-13T10:48:53.771Z,1008.45
2024-02-13T10:49:53.793Z,1008.43
2024-02-13T10:50:53.734Z,1008.47
2024-02-13T10:51:53.630Z,1008.40
2024-02-13T10:52:53.638Z,1008.43
2024-02-13T10:53:53.650Z,1008.39
2024-02-13T10:54:53.635Z,1008.39
2024-02-13T10:55:53.682Z,1008.38
2024-02-13T10:56:53.677Z,1008.40
2024-02-13T10:57:53.571Z,1008.38
2024-02-13T10:58:53.599Z,1008.43
2024-02-13T10:59:53.591Z,1008.37
2024-02-13T11:00:53.613Z,1008.38
2024-02-13T11:01:53.569Z,1008.35
2024-02-13T11:02:53.888Z,1008.33
2024-02-13T11:03:53.538Z,1008.34
2024-02-13T11:04:53.574Z,1008.35
2024-02-13T11:05:53.700Z,1008.35
2024-02-13T11:06:53.523Z,1008.32
2024-02-13T11:07:53.508Z,1008.34
2024-02-13T11:08:53.571Z,1008.34
2024-02-13T11:09:53.447Z,1008.33
2024-02-13T11:10:53.468Z,1008.38
2024-02-13T11:11:53.490Z,1008.38
2024-02-13T11:12:53.481Z,1008.31
2024-02-13T11:13:53.401Z,1008.34
2024-02-13T11:14:53.540Z,1008.31
2024-02-13T11:15:53.376Z,1008.29
2024-02-13T11:16:53.404Z,1008.28
2024-02-13T11:17:53.428Z,1008.30
2024-02-13T11:18:54.072Z,1008.25
2024-02-13T11:19:53.641Z,1008.27
2024-02-13T11:20:53.405Z,1008.27
2024-02-13T11:21:53.319Z,1008.26
2024-02-13T11:22:53.351Z,1008.26
2024-02-13T11:23:53.387Z,1008.21
2024-02-13T11:24:53.373Z,1008.17
2024-02-13T11:25:53.368Z,1008.15
2024-02-13T11:26:53.303Z,1008.14
2024-02-13T11:27:53.285Z,1008.18
2024-02-13T11:28:53.326Z,1008.17
2024-02-13T11:29:53.257Z,1008.18
2024-02-13T11:30:53.235Z,1008.18
2024-02-13T11:31:53.234Z,1008.15
2024-02-13T11:32:53.385Z,1008.13
2024-02-13T11:33:53.463Z,1008.18
2024-02-13T11:34:53.296Z,1008.16
2024-02-13T11:35:53.202Z,1008.16
2024-02-13T11:36:53.171Z,1008.15
2024-02-13T11:37:53.194Z,1008.13
2024-02-13T11:38:53.240Z,1008.15
2024-02-13T11:39:53.143Z,1008.14
2024-02-13T11:40:53.133Z,1008.14
2024-02-13T11:41:53.180Z,1008.13
2024-02-13T11:42:53.120Z,1008.13
2024-02-13T11:43:53.117Z,1008.11
2024-02-13T11:44:53.296Z,1008.09
2024-02-13T11:45:53.094Z,1008.10
2024-02-13T11:46:53.068Z,1008.09
2024-02-13T11:47:53.126Z,1008.08
2024-02-13T11:48:53.209Z,1008.08
2024-02-13T11:49:53.203Z,1008.17
2024-02-13T11:50:53.082Z,1008.10
2024-02-13T11:51:53.011Z,1008.13
2024-02-13T11:52:53.061Z,1008.11
2024-02-13T11:53:53.034Z,1008.12
2024-02-13T11:54:52.988Z,1008.12
2024-02-13T11:55:52.972Z,1008.12
2024-02-13T11:56:53.116Z,1008.12
2024-02-13T11:57:52.940Z,1008.07
2024-02-13T11:58:53.147Z,1008.07
2024-02-13T11:59:53.109Z,1008.08
2024-02-13T12:00:53.004Z,1008.07
2024-02-13T12:01:52.902Z,1008.09
2024-02-13T12:02:52.948Z,1008.09
2024-02-13T12:03:52.871Z,1008.13
2024-02-13T12:04:52.869Z,1008.14
2024-02-13T12:05:52.969Z,1008.15
2024-02-13T12:06:52.893Z,1008.17
2024-02-13T12:07:52.839Z,1008.14
2024-02-13T12:08:53.479Z,1008.14
2024-02-13T12:09:52.811Z,1008.12
2024-02-13T12:10:52.822Z,1008.09
2024-02-13T12:11:52.836Z,1008.05
2024-02-13T12:12:52.834Z,1008.07
2024-02-13T12:13:52.769Z,1008.03
2024-02-13T12:14:52.791Z,1008.04
2024-02-13T12:15:52.743Z,1008.02
2024-02-13T12:16:52.744Z,1008.00
2024-02-13T12:17:52.801Z,1008.01
2024-02-13T12:18:52.866Z,1007.99
2024-02-13T12:19:52.726Z,1007.98
2024-02-13T12:20:52.801Z,1007.97
2024-02-13T12:21:52.728Z,1007.94
2024-02-13T12:22:52.684Z,1007.93
2024-02-13T12:23:52.690Z,1007.90
2024-02-13T12:24:52.693Z,1007.91
2024-02-13T12:25:52.660Z,1007.91
2024-02-13T12:26:52.664Z,1007.90
2024-02-13T12:27:52.658Z,1007.87
2024-02-13T12:28:52.629Z,1007.86
2024-02-13T12:29:52.686Z,1007.86
2024-02-13T12:30:52.607Z,1007.87
2024-02-13T12:31:52.574Z,1007.88
2024-02-13T12:32:52.710Z,1007.91
2024-02-13T12:33:52.612Z,1007.92
2024-02-13T12:34:52.644Z,1008.00
2024-02-13T12:35:52.579Z,1007.98
2024-02-13T12:36:52.615Z,1007.96
2024-02-13T12:37:52.533Z,1007.97
2024-02-13T12:38:52.574Z,1007.97
2024-02-13T12:39:52.507Z,1007.96
2024-02-13T12:40:52.498Z,1008.02
2024-02-13T12:41:53.393Z,1007.86
2024-02-13T12:42:52.488Z,1007.82
2024-02-13T12:43:52.469Z,1007.80
2024-02-13T12:44:52.516Z,1007.78
2024-02-13T12:45:52.558Z,1007.78
2024-02-13T12:46:52.970Z,1007.76
2024-02-13T12:47:52.483Z,1007.77
2024-02-13T12:48:52.556Z,1007.78
2024-02-13T12:49:52.522Z,1007.78
2024-02-13T12:50:52.519Z,1007.76
2024-02-13T12:51:52.466Z,1007.77
2024-02-13T12:52:52.424Z,1007.78
2024-02-13T12:53:52.449Z,1007.77
2024-02-13T12:54:52.390Z,1007.78
2024-02-13T12:55:52.330Z,1007.77
2024-02-13T12:56:52.378Z,1007.72
2024-02-13T12:57:52.296Z,1007.72
2024-02-13T12:58:52.334Z,1007.72
2024-02-13T12:59:53.648Z,1007.65
2024-02-13T13:00:52.363Z,1007.64
2024-02-13T13:01:52.255Z,1007.59
2024-02-13T13:02:52.315Z,1007.62
2024-02-13T13:03:52.247Z,1007.58
2024-02-13T13:04:52.268Z,1007.57
2024-02-13T13:05:52.260Z,1007.58
2024-02-13T13:06:52.384Z,1007.62
2024-02-13T13:07:52.189Z,1007.58
2024-02-13T13:08:57.175Z,1007.58
2024-02-13T13:09:52.243Z,1007.59
2024-02-13T13:10:52.219Z,1007.57
2024-02-13T13:11:52.175Z,1007.60
2024-02-13T13:12:52.157Z,1007.60
2024-02-13T13:13:52.132Z,1007.65
2024-02-13T13:14:52.185Z,1007.61
2024-02-13T13:15:52.161Z,1007.62
2024-02-13T13:16:52.742Z,1007.56
2024-02-13T13:17:52.157Z,1007.58
2024-02-13T13:18:52.190Z,1007.53
2024-02-13T13:19:52.189Z,1007.53
2024-02-13T13:20:52.814Z,1007.57
2024-02-13T13:21:52.051Z,1007.58
2024-02-13T13:22:52.066Z,1007.55
2024-02-13T13:23:52.046Z,1007.55
2024-02-13T13:24:52.020Z,1007.49
2024-02-13T13:25:52.042Z,1007.48
2024-02-13T13:26:52.123Z,1007.46
2024-02-13T13:27:52.056Z,1007.46
2024-02-13T13:28:51.996Z,1007.41
2024-02-13T13:29:51.970Z,1007.38
2024-02-13T13:30:51.973Z,1007.34
2024-02-13T13:31:51.963Z,1007.35
2024-02-13T13:32:52.044Z,1007.32
2024-02-13T13:33:52.044Z,1007.33
2024-02-13T13:34:51.984Z,1007.30
2024-02-13T13:35:51.953Z,1007.33
2024-02-13T13:36:51.912Z,1007.30
2024-02-13T13:37:51.948Z,1007.31
2024-02-13T13:38:51.923Z,1007.30
2024-02-13T13:39:51.864Z,1007.30
2024-02-13T13:40:51.878Z,1007.29
2024-02-13T13:41:51.902Z,1007.30
2024-02-13T13:42:51.971Z,1007.32
2024-02-13T13:43:51.839Z,1007.31
2024-02-13T13:44:51.833Z,1007.33
2024-02-13T13:45:51.808Z,1007.33
2024-02-13T13:46:52.317Z,1007.31
2024-02-13T13:47:51.886Z,1007.30
2024-02-13T13:48:51.919Z,1007.34
2024-02-13T13:49:51.785Z,1007.35
2024-02-13T13:50:51.815Z,1007.34
2024-02-13T13:51:51.742Z,1007.35
2024-02-13T13:52:52.265Z,1007.34
2024-02-13T13:53:51.722Z,1007.38
2024-02-13T13:54:51.714Z,1007.38
2024-02-13T13:55:51.769Z,1007.41
2024-02-13T13:56:51.777Z,1007.41
2024-02-13T13:57:51.685Z,1007.40
2024-02-13T13:58:52.276Z,1007.39
2024-02-13T13:59:51.736Z,1007.40
2024-02-13T14:00:51.683Z,1007.42
2024-02-13T14:01:51.637Z,1007.43
2024-02-13T14:02:51.819Z,1007.44
2024-02-13T14:03:51.613Z,1007.43
2024-02-13T14:04:51.613Z,1007.42
2024-02-13T14:05:51.685Z,1007.42
2024-02-13T14:06:51.621Z,1007.43
2024-02-13T14:07:51.557Z,1007.43
2024-02-13T14:08:51.620Z,1007.42
2024-02-13T14:09:51.549Z,1007.42
2024-02-13T14:10:51.532Z,1007.41
2024-02-13T14:11:51.570Z,1007.39
2024-02-13T14:12:51.516Z,1007.40
2024-02-13T14:13:51.502Z,1007.39
2024-02-13T14:14:51.545Z,1007.43
2024-02-13T14:15:51.471Z,1007.47
2024-02-13T14:16:51.525Z,1007.44
2024-02-13T14:17:51.496Z,1007.46
2024-02-13T14:18:51.526Z,1007.48
2024-02-13T14:19:51.445Z,1007.51
2024-02-13T14:20:51.449Z,1007.53
2024-02-13T14:21:51.418Z,1007.61
2024-02-13T14:22:51.463Z,1007.57
2024-02-13T14:23:51.414Z,1007.57
2024-02-13T14:24:51.408Z,1007.58
2024-02-13T14:25:51.888Z,1007.58
2024-02-13T14:26:51.393Z,1007.55
2024-02-13T14:27:51.346Z,1007.52
2024-02-13T14:28:51.366Z,1007.55
2024-02-13T14:29:51.365Z,1007.55
2024-02-13T14:30:51.314Z,1007.56
2024-02-13T14:31:51.306Z,1007.59
2024-02-13T14:32:51.395Z,1007.60
2024-02-13T14:33:51.426Z,1007.59
2024-02-13T14:34:51.321Z,1007.63
2024-02-13T14:35:51.282Z,1007.60
2024-02-13T14:36:51.273Z,1007.62
2024-02-13T14:37:51.259Z,1007.62
2024-02-13T14:38:51.259Z,1007.66
2024-02-13T14:39:51.263Z,1007.65
2024-02-13T14:40:51.235Z,1007.66
2024-02-13T14:41:51.311Z,1007.69
2024-02-13T14:42:51.216Z,1007.71
2024-02-13T14:43:51.215Z,1007.73
2024-02-13T14:44:51.220Z,1007.79
2024-02-13T14:45:51.193Z,1007.79
2024-02-13T14:46:51.134Z,1007.75
2024-02-13T14:47:51.270Z,1007.75
2024-02-13T14:48:51.416Z,1007.74
2024-02-13T14:49:51.303Z,1007.74
2024-02-13T14:50:51.247Z,1007.76
2024-02-13T14:51:51.110Z,1007.75
2024-02-13T14:52:51.094Z,1007.78
2024-02-13T14:53:51.181Z,1007.79
2024-02-13T14:54:51.090Z,1007.82
2024-02-13T14:55:51.084Z,1007.80
2024-02-13T14:56:51.168Z,1007.81
2024-02-13T14:58:00.656Z,1007.80
2024-02-13T14:58:51.015Z,1007.82
2024-02-13T14:59:51.151Z,1007.79
2024-02-13T15:00:51.023Z,1007.79
2024-02-13T15:01:50.987Z,1007.76
2024-02-13T15:02:51.039Z,1007.77
2024-02-13T15:03:51.043Z,1007.75
2024-02-13T15:04:51.059Z,1007.72
2024-02-13T15:05:51.055Z,1007.74
2024-02-13T15:06:51.061Z,1007.72
2024-02-13T15:07:50.959Z,1007.74
2024-02-13T15:08:51.122Z,1007.73
2024-02-13T15:09:50.959Z,1007.73
2024-02-13T15:10:50.896Z,1007.74
2024-02-13T15:11:50.964Z,1007.75
2024-02-13T15:12:50.876Z,1007.76
2024-02-13T15:13:50.878Z,1007.77
2024-02-13T15:14:51.208Z,1007.79
2024-02-13T15:15:50.851Z,1007.77
2024-02-13T15:16:50.842Z,1007.80
2024-02-13T15:17:50.943Z,1007.79
2024-02-13T15:18:50.873Z,1007.81
2024-02-13T15:19:50.846Z,1007.85
2024-02-13T15:20:50.843Z,1007.81
2024-02-13T15:21:50.776Z,1007.82
2024-02-13T15:22:50.769Z,1007.81
2024-02-13T15:23:50.840Z,1007.83
2024-02-13T15:24:50.732Z,1007.84
2024-02-13T15:25:50.767Z,1007.85
2024-02-13T15:26:51.179Z,1007.85
2024-02-13T15:27:50.766Z,1007.85
2024-02-13T15:28:50.697Z,1007.85
2024-02-13T15:29:50.777Z,1007.84
2024-02-13T15:30:50.739Z,1007.83
2024-02-13T15:31:50.691Z,1007.84
2024-02-13T15:32:50.816Z,1007.84
2024-02-13T15:33:51.075Z,1007.85
2024-02-13T15:34:50.721Z,1007.85
2024-02-13T15:35:50.675Z,1007.83
2024-02-13T15:36:50.636Z,1007.82
2024-02-13T15:37:50.747Z,1007.82
2024-02-13T15:38:50.635Z,1007.82
2024-02-13T15:39:50.585Z,1007.81
2024-02-13T15:40:50.564Z,1007.81
2024-02-13T15:41:50.637Z,1007.81
2024-02-13T15:42:50.547Z,1007.82
2024-02-13T15:43:50.720Z,1007.83
2024-02-13T15:44:50.580Z,1007.85
2024-02-13T15:45:50.592Z,1007.86
2024-02-13T15:46:50.519Z,1007.85
2024-02-13T15:47:50.721Z,1007.85
2024-02-13T15:48:50.647Z,1007.84
2024-02-13T15:49:50.830Z,1007.83
2024-02-13T15:50:50.503Z,1007.83
2024-02-13T15:51:50.558Z,1007.83
2024-02-13T15:52:50.434Z,1007.84
2024-02-13T15:53:50.565Z,1007.84
2024-02-13T15:54:50.460Z,1007.83
2024-02-13T15:55:50.426Z,1007.82
2024-02-13T15:56:50.507Z,1007.82
2024-02-13T15:57:50.428Z,1007.82
2024-02-13T15:58:50.364Z,1007.83
2024-02-13T15:59:50.415Z,1007.84
2024-02-13T16:00:50.423Z,1007.87
2024-02-13T16:01:50.391Z,1007.84
2024-02-13T16:02:50.366Z,1007.86
2024-02-13T16:03:50.383Z,1007.86
2024-02-13T16:04:50.319Z,1007.85
2024-02-13T16:05:50.342Z,1007.86
2024-02-13T16:06:50.393Z,1007.85
2024-02-13T16:07:50.307Z,1007.86
2024-02-13T16:08:50.357Z,1007.87
2024-02-13T16:09:50.265Z,1007.87
2024-02-13T16:10:50.253Z,1007.87
2024-02-13T16:11:50.329Z,1007.88
2024-02-13T16:12:50.236Z,1007.89
2024-02-13T16:13:50.230Z,1007.91
2024-02-13T16:14:50.223Z,1007.88
2024-02-13T16:15:50.226Z,1007.87
2024-02-13T16:16:50.211Z,1007.85
2024-02-13T16:17:50.367Z,1007.83
2024-02-13T16:18:50.278Z,1007.82
2024-02-13T16:19:50.182Z,1007.82
2024-02-13T16:20:50.155Z,1007.80
2024-02-13T16:21:50.156Z,1007.81
2024-02-13T16:22:50.129Z,1007.82
2024-02-13T16:23:50.162Z,1007.81
2024-02-13T16:24:50.095Z,1007.81
2024-02-13T16:25:50.102Z,1007.82
2024-02-13T16:26:50.123Z,1007.83
2024-02-13T16:27:50.182Z,1007.83
2024-02-13T16:28:50.103Z,1007.84
2024-02-13T16:29:50.131Z,1007.86
2024-02-13T16:30:50.047Z,1007.89
2024-02-13T16:31:50.070Z,1007.92
2024-02-13T16:32:50.091Z,1007.91
2024-02-13T16:33:50.116Z,1007.96
2024-02-13T16:34:50.119Z,1007.96
2024-02-13T16:35:50.141Z,1007.98